Time;durP1;ratioP1;P1;durP2;ratioP2;P2;SDS_P1;SDS_P2;PMS_P1;PMS_P2;Temp;Humidity;BMP_temperature;BMP_pressure;BME280_temperature;BME280_humidity;BME280_pressure;Samples;Min_cycle;Max_cycle;Signal;HPM_P1;HPM_P2
2023/12/30 00:02:24;;;;;;;12.00;11.60;;;11.10;99.90;;;;;;5124958;28;20206;-61
2023/12/30 00:04:51;;;;;;;13.23;12.80;;;11.00;99.90;;;;;;5124870;28;20205;-62
2023/12/30 00:07:19;;;;;;;12.53;12.13;;;11.10;99.90;;;;;;5128231;28;20216;-62
2023/12/30 00:09:46;;;;;;;14.88;14.38;;;11.10;99.90;;;;;;5131250;27;20209;-62
2023/12/30 00:12:13;;;;;;;12.60;12.20;;;11.10;99.90;;;;;;5126278;28;20304;-62
2023/12/30 00:14:39;;;;;;;13.13;12.70;;;11.20;99.90;;;;;;5126675;28;20202;-63
2023/12/30 00:17:06;;;;;;;11.47;11.07;;;11.30;99.90;;;;;;5117363;28;20206;-63
2023/12/30 00:19:34;;;;;;;13.17;12.67;;;11.30;99.90;;;;;;5118616;27;20239;-62
2023/12/30 00:22:02;;;;;;;11.33;10.93;;;11.40;99.90;;;;;;5118698;27;20225;-63
2023/12/30 00:24:30;;;;;;;11.55;11.15;;;11.40;99.90;;;;;;5119322;27;20715;-63
2023/12/30 00:26:57;;;;;;;12.90;12.50;;;11.40;99.90;;;;;;5114744;28;20198;-62
2023/12/30 00:29:25;;;;;;;11.97;11.57;;;11.40;99.90;;;;;;5114093;28;20550;-63
2023/12/30 00:31:52;;;;;;;12.07;11.67;;;11.40;99.90;;;;;;5112999;28;20297;-61
2023/12/30 00:34:18;;;;;;;12.52;12.13;;;11.40;99.90;;;;;;5110568;28;20215;-63
2023/12/30 00:36:45;;;;;;;12.70;12.23;;;11.50;99.90;;;;;;5112346;28;20213;-61
2023/12/30 00:39:12;;;;;;;12.37;11.97;;;11.50;99.90;;;;;;5112213;28;20198;-63
2023/12/30 00:41:40;;;;;;;12.50;12.10;;;11.50;99.90;;;;;;5117966;27;20221;-61
2023/12/30 00:44:07;;;;;;;12.53;12.13;;;11.50;99.90;;;;;;5111956;27;20202;-62
2023/12/30 00:46:33;;;;;;;13.73;13.25;;;11.50;99.90;;;;;;5111970;28;20669;-62
2023/12/30 00:49:00;;;;;;;13.87;13.37;;;11.50;99.90;;;;;;5115903;27;20225;-63
2023/12/30 00:51:27;;;;;;;13.73;13.23;;;11.50;99.90;;;;;;5110005;28;20236;-62
2023/12/30 00:53:54;;;;;;;13.57;13.07;;;11.50;99.90;;;;;;5112124;28;20202;-62
2023/12/30 00:56:20;;;;;;;13.13;12.73;;;11.50;99.90;;;;;;5107214;27;20206;-63
2023/12/30 00:58:49;;;;;;;12.67;12.27;;;11.50;99.90;;;;;;5110579;28;20585;-62
2023/12/30 01:01:15;;;;;;;12.47;12.07;;;11.40;99.90;;;;;;5112264;28;20225;-62
2023/12/30 01:03:42;;;;;;;12.97;12.47;;;11.40;99.90;;;;;;5113140;28;20205;-62
2023/12/30 01:06:09;;;;;;;12.90;12.50;;;11.40;99.90;;;;;;5111858;28;20547;-63
2023/12/30 01:08:36;;;;;;;12.80;12.40;;;11.40;99.90;;;;;;5116021;27;20193;-62
2023/12/30 01:11:04;;;;;;;13.03;12.60;;;11.40;99.90;;;;;;5111161;27;20238;-62
2023/12/30 01:13:30;;;;;;;13.33;12.90;;;11.40;99.90;;;;;;5111478;28;20271;-63
2023/12/30 01:15:58;;;;;;;12.80;12.37;;;11.40;99.90;;;;;;5112415;27;20198;-62
2023/12/30 01:18:25;;;;;;;12.70;12.30;;;11.40;99.90;;;;;;5106327;28;20222;-63
2023/12/30 01:20:52;;;;;;;12.70;12.30;;;11.40;99.90;;;;;;5111532;28;20229;-62
2023/12/30 01:23:19;;;;;;;12.83;12.43;;;11.40;99.90;;;;;;5110611;28;20260;-62
2023/12/30 01:25:46;;;;;;;12.83;12.40;;;11.40;99.90;;;;;;5119237;27;20201;-62
2023/12/30 01:28:12;;;;;;;12.98;12.57;;;11.40;99.90;;;;;;5116915;27;20198;-62
2023/12/30 01:30:40;;;;;;;12.80;12.40;;;11.40;99.90;;;;;;5118335;28;20221;-61
2023/12/30 01:33:08;;;;;;;11.90;11.50;;;11.40;99.90;;;;;;5109951;28;20304;-63
2023/12/30 01:35:34;;;;;;;13.50;13.00;;;11.40;99.90;;;;;;5110938;28;20194;-62
2023/12/30 01:38:01;;;;;;;13.70;13.20;;;11.40;99.90;;;;;;5110907;28;20692;-61
2023/12/30 01:40:28;;;;;;;13.50;13.07;;;11.50;99.90;;;;;;5111046;28;20218;-62
2023/12/30 01:42:54;;;;;;;13.87;13.37;;;11.50;99.90;;;;;;5111105;28;20198;-63
2023/12/30 01:45:21;;;;;;;12.90;12.40;;;11.40;99.90;;;;;;5113313;28;20215;-62
2023/12/30 01:47:48;;;;;;;13.30;12.87;;;11.40;99.90;;;;;;5123317;28;20212;-63
2023/12/30 01:50:17;;;;;;;14.47;13.97;;;11.40;99.90;;;;;;5109182;28;20237;-62
2023/12/30 01:52:46;;;;;;;13.47;13.03;;;11.40;99.90;;;;;;5119713;28;20222;-63
2023/12/30 01:55:13;;;;;;;14.17;13.63;;;11.40;99.90;;;;;;5111521;28;20205;-63
2023/12/30 01:57:40;;;;;;;13.07;12.68;;;11.50;99.90;;;;;;5115778;28;20712;-63
2023/12/30 02:00:08;;;;;;;12.77;12.37;;;11.40;99.90;;;;;;5111194;27;20260;-63
2023/12/30 02:02:35;;;;;;;13.07;12.67;;;11.40;99.90;;;;;;5112410;28;20247;-62
2023/12/30 02:05:02;;;;;;;12.87;12.47;;;11.40;99.90;;;;;;5114028;28;20206;-61
2023/12/30 02:07:30;;;;;;;13.03;12.63;;;11.40;99.90;;;;;;5113331;28;20877;-63
2023/12/30 02:09:57;;;;;;;13.47;13.00;;;11.30;99.90;;;;;;5112715;28;20202;-61
2023/12/30 02:12:23;;;;;;;12.90;12.50;;;11.30;99.90;;;;;;5113308;28;20250;-63
2023/12/30 02:14:50;;;;;;;13.45;12.95;;;11.30;99.90;;;;;;5112397;28;20229;-62
2023/12/30 02:17:17;;;;;;;13.65;13.15;;;11.30;99.90;;;;;;5106812;28;20210;-62
2023/12/30 02:19:44;;;;;;;13.15;12.75;;;11.30;99.90;;;;;;5112096;28;20205;-61
2023/12/30 02:22:10;;;;;;;13.35;12.93;;;11.30;99.90;;;;;;5117484;28;20222;-60
2023/12/30 02:24:38;;;;;;;13.40;13.00;;;11.30;99.90;;;;;;5118744;27;20236;-61
2023/12/30 02:27:05;;;;;;;13.07;12.67;;;11.20;99.90;;;;;;5116597;27;20367;-61
2023/12/30 02:29:32;;;;;;;13.23;12.83;;;11.30;99.90;;;;;;5118569;28;20209;-62
2023/12/30 02:31:59;;;;;;;14.57;14.07;;;11.20;99.90;;;;;;5120222;28;20704;-61
2023/12/30 02:34:27;;;;;;;14.67;14.17;;;11.20;99.90;;;;;;5113113;28;20204;-62
2023/12/30 02:36:54;;;;;;;14.60;14.10;;;11.30;99.90;;;;;;5111159;28;20202;-62
2023/12/30 02:39:20;;;;;;;14.52;14.02;;;11.30;99.90;;;;;;5113017;28;20194;-62
2023/12/30 02:41:48;;;;;;;13.90;13.40;;;11.20;99.90;;;;;;5114828;28;20589;-62
2023/12/30 02:44:18;;;;;;;12.90;12.50;;;11.20;99.90;;;;;;5112972;28;20206;-61
2023/12/30 02:46:45;;;;;;;12.97;12.57;;;11.20;99.90;;;;;;5117210;28;20284;-61
2023/12/30 02:49:11;;;;;;;12.53;12.13;;;11.20;99.90;;;;;;5114987;27;20213;-62
2023/12/30 02:51:38;;;;;;;13.70;13.20;;;11.20;99.90;;;;;;5114448;28;20244;-62
2023/12/30 02:54:05;;;;;;;12.73;12.33;;;11.20;99.90;;;;;;5113631;28;20328;-62
2023/12/30 02:56:32;;;;;;;13.50;13.10;;;11.10;99.90;;;;;;5114431;28;20494;-62
2023/12/30 02:59:01;;;;;;;13.07;12.67;;;11.20;99.90;;;;;;5111118;28;20317;-62
2023/12/30 03:01:29;;;;;;;11.90;11.50;;;11.20;99.90;;;;;;5118175;28;20566;-62
2023/12/30 03:03:58;;;;;;;13.77;13.27;;;11.20;99.90;;;;;;5124562;28;20202;-63
2023/12/30 03:06:25;;;;;;;12.57;12.17;;;11.10;99.90;;;;;;5119562;28;20695;-62
2023/12/30 03:08:53;;;;;;;13.03;12.63;;;11.10;99.90;;;;;;5111720;28;20202;-62
2023/12/30 03:11:20;;;;;;;14.17;13.67;;;11.10;99.90;;;;;;5111778;28;20231;-61
2023/12/30 03:13:47;;;;;;;12.87;12.47;;;11.10;99.90;;;;;;5112842;28;20214;-62
2023/12/30 03:16:15;;;;;;;13.20;12.80;;;11.10;99.90;;;;;;5111997;28;20202;-63
2023/12/30 03:18:42;;;;;;;13.23;12.73;;;11.10;99.90;;;;;;5113578;28;20225;-62
2023/12/30 03:21:12;;;;;;;13.87;13.37;;;11.00;99.90;;;;;;5110763;28;20225;-61
2023/12/30 03:23:39;;;;;;;13.90;13.40;;;11.00;99.90;;;;;;5112487;28;20212;-62
2023/12/30 03:26:07;;;;;;;13.90;13.40;;;11.10;99.90;;;;;;5113210;28;20202;-61
2023/12/30 03:28:34;;;;;;;13.20;12.73;;;11.10;99.90;;;;;;5113543;28;20237;-62
2023/12/30 03:31:01;;;;;;;13.83;13.33;;;11.10;99.90;;;;;;5112473;28;20224;-62
2023/12/30 03:33:29;;;;;;;13.00;12.60;;;11.20;99.90;;;;;;5112778;28;20228;-61
2023/12/30 03:35:56;;;;;;;13.90;13.40;;;11.10;99.90;;;;;;5111790;28;20657;-61
2023/12/30 03:38:23;;;;;;;13.70;13.23;;;11.10;99.90;;;;;;5112788;28;20199;-62
2023/12/30 03:40:50;;;;;;;13.13;12.67;;;11.10;99.90;;;;;;5112187;28;20702;-61
2023/12/30 03:43:17;;;;;;;12.77;12.37;;;11.10;99.90;;;;;;5108244;27;20286;-61
2023/12/30 03:45:44;;;;;;;12.80;12.40;;;11.10;99.90;;;;;;5106583;28;20206;-60
2023/12/30 03:48:11;;;;;;;13.33;12.93;;;11.20;99.90;;;;;;5111155;28;20206;-61
2023/12/30 03:50:39;;;;;;;14.33;13.83;;;11.20;99.90;;;;;;5113590;28;20220;-62
2023/12/30 03:53:06;;;;;;;13.80;13.30;;;11.20;99.90;;;;;;5111639;27;20230;-61
2023/12/30 03:55:32;;;;;;;13.57;13.10;;;11.20;99.90;;;;;;5113808;28;20205;-62
2023/12/30 03:57:59;;;;;;;14.03;13.53;;;11.10;99.90;;;;;;5113790;28;20202;-62
2023/12/30 04:00:26;;;;;;;14.37;13.87;;;11.10;99.90;;;;;;5108860;28;20705;-61
2023/12/30 04:02:52;;;;;;;13.17;12.77;;;11.10;99.90;;;;;;5112956;28;20207;-61
2023/12/30 04:05:19;;;;;;;14.10;13.60;;;11.10;99.90;;;;;;5114543;28;20221;-61
2023/12/30 04:07:47;;;;;;;13.82;13.32;;;11.00;99.90;;;;;;5114123;28;20208;-62
2023/12/30 04:10:15;;;;;;;12.60;12.20;;;11.10;99.90;;;;;;5111853;28;20218;-62
2023/12/30 04:12:41;;;;;;;12.87;12.37;;;11.10;99.90;;;;;;5112302;28;20206;-62
2023/12/30 04:15:10;;;;;;;12.38;11.98;;;11.10;99.90;;;;;;5111732;28;20198;-61
2023/12/30 04:17:36;;;;;;;13.23;12.80;;;11.10;99.90;;;;;;5111790;28;20202;-61
2023/12/30 04:20:03;;;;;;;14.43;13.93;;;11.10;99.90;;;;;;5112089;28;20699;-62
2023/12/30 04:22:30;;;;;;;13.43;13.00;;;11.10;99.90;;;;;;5104293;28;20205;-61
2023/12/30 04:24:59;;;;;;;13.43;12.93;;;11.10;99.90;;;;;;5111106;28;20205;-61
2023/12/30 04:27:26;;;;;;;14.20;13.70;;;11.10;99.90;;;;;;5112201;28;20611;-61
2023/12/30 04:29:52;;;;;;;13.93;13.43;;;11.10;99.90;;;;;;5115643;27;20206;-61
2023/12/30 04:32:20;;;;;;;12.90;12.50;;;11.10;99.90;;;;;;5115897;28;20205;-62
2023/12/30 04:34:47;;;;;;;13.17;12.77;;;11.00;99.90;;;;;;5119553;28;20232;-63
2023/12/30 04:37:14;;;;;;;14.17;13.67;;;11.00;99.90;;;;;;5124712;27;20583;-62
2023/12/30 04:39:41;;;;;;;13.60;13.13;;;11.00;99.90;;;;;;5132524;27;20220;-62
2023/12/30 04:42:09;;;;;;;14.07;13.57;;;11.00;99.90;;;;;;5129719;27;20222;-61
2023/12/30 04:44:35;;;;;;;13.53;13.10;;;11.00;99.90;;;;;;5118264;27;20197;-61
2023/12/30 04:47:02;;;;;;;14.47;13.97;;;11.10;99.90;;;;;;5112667;28;20660;-62
2023/12/30 04:49:29;;;;;;;15.07;14.57;;;11.10;99.90;;;;;;5115431;27;20201;-62
2023/12/30 04:51:56;;;;;;;15.37;14.87;;;11.10;99.90;;;;;;5111746;28;20225;-62
2023/12/30 04:54:22;;;;;;;15.73;15.23;;;11.20;99.90;;;;;;5113926;27;20217;-62
2023/12/30 04:56:51;;;;;;;14.63;14.13;;;11.10;99.90;;;;;;5112272;28;20206;-61
2023/12/30 04:59:19;;;;;;;15.57;15.07;;;11.10;99.90;;;;;;5116023;27;20270;-61
2023/12/30 05:01:46;;;;;;;14.77;14.27;;;11.00;99.90;;;;;;5114147;28;20217;-62
2023/12/30 05:04:13;;;;;;;16.63;16.03;;;11.10;99.90;;;;;;5111727;28;20227;-61
2023/12/30 05:06:40;;;;;;;14.87;14.37;;;11.10;99.90;;;;;;5112617;28;20606;-62
2023/12/30 05:09:06;;;;;;;16.20;15.63;;;11.10;99.90;;;;;;5114885;27;20213;-62
2023/12/30 05:11:33;;;;;;;17.53;16.87;;;11.10;99.90;;;;;;5118612;27;20229;-62
2023/12/30 05:14:00;;;;;;;16.87;16.27;;;11.00;99.90;;;;;;5116854;27;20217;-61
2023/12/30 05:16:28;;;;;;;17.97;17.37;;;11.00;99.90;;;;;;5112244;28;20507;-61
2023/12/30 05:18:54;;;;;;;16.70;16.10;;;11.00;99.90;;;;;;5112648;28;20206;-61
2023/12/30 05:21:21;;;;;;;18.20;17.60;;;11.00;99.90;;;;;;5109879;28;20724;-62
2023/12/30 05:23:48;;;;;;;17.93;17.33;;;11.00;99.90;;;;;;5115352;27;20213;-62
2023/12/30 05:26:14;;;;;;;17.87;17.27;;;10.90;99.90;;;;;;5107080;27;20205;-62
2023/12/30 05:28:41;;;;;;;17.02;16.42;;;10.80;99.90;;;;;;5112128;27;20570;-61
2023/12/30 05:31:08;;;;;;;16.97;16.37;;;10.80;99.90;;;;;;5118644;27;20218;-60
2023/12/30 05:33:36;;;;;;;17.35;16.75;;;10.80;99.90;;;;;;5105576;28;20210;-61
2023/12/30 05:36:03;;;;;;;17.67;17.07;;;10.80;99.90;;;;;;5107990;28;20210;-61
2023/12/30 05:38:30;;;;;;;17.53;16.93;;;10.80;99.90;;;;;;5103533;28;20668;-61
2023/12/30 05:40:56;;;;;;;18.10;17.50;;;10.80;99.90;;;;;;5102751;28;20300;-61
2023/12/30 05:43:23;;;;;;;16.43;15.83;;;10.70;99.90;;;;;;5111800;28;20202;-62
2023/12/30 05:45:50;;;;;;;17.05;16.45;;;10.70;99.90;;;;;;5104164;28;20562;-63
2023/12/30 05:48:16;;;;;;;16.27;15.67;;;10.70;99.90;;;;;;5106075;27;20535;-61
2023/12/30 05:50:45;;;;;;;15.47;14.97;;;10.60;99.90;;;;;;5117076;28;20235;-62
2023/12/30 05:53:11;;;;;;;15.37;14.87;;;10.70;99.90;;;;;;5105194;28;20198;-62
2023/12/30 05:55:39;;;;;;;14.77;14.27;;;10.80;99.90;;;;;;5105546;28;20547;-61
2023/12/30 05:58:06;;;;;;;15.20;14.70;;;10.70;99.90;;;;;;5110186;28;20194;-61
2023/12/30 06:00:33;;;;;;;15.10;14.60;;;10.70;99.90;;;;;;5116712;28;20229;-61
2023/12/30 06:02:58;;;;;;;16.53;15.93;;;10.80;99.90;;;;;;5117199;27;20676;-62
2023/12/30 06:05:25;;;;;;;16.58;16.00;;;10.70;99.90;;;;;;5125303;27;20217;-61
2023/12/30 06:07:53;;;;;;;16.23;15.67;;;10.70;99.90;;;;;;5115652;28;20213;-61
2023/12/30 06:10:20;;;;;;;16.00;15.47;;;10.50;99.90;;;;;;5127212;27;20221;-61
2023/12/30 06:12:47;;;;;;;16.20;15.67;;;10.50;99.90;;;;;;5117046;28;20206;-60
2023/12/30 06:15:14;;;;;;;16.53;15.97;;;10.40;99.90;;;;;;5106086;28;20236;-62
2023/12/30 06:17:41;;;;;;;16.73;16.13;;;10.30;99.90;;;;;;5111180;28;20210;-61
2023/12/30 06:20:09;;;;;;;15.50;15.00;;;10.20;99.90;;;;;;5114355;27;20198;-61
2023/12/30 06:22:35;;;;;;;15.70;15.20;;;10.20;99.90;;;;;;5114239;27;20209;-61
2023/12/30 06:25:04;;;;;;;16.17;15.57;;;10.10;99.90;;;;;;5113597;27;20577;-62
2023/12/30 06:27:31;;;;;;;15.87;15.33;;;10.20;99.90;;;;;;5107351;28;20233;-60
2023/12/30 06:29:58;;;;;;;17.00;16.40;;;10.20;99.90;;;;;;5106916;27;20681;-62
2023/12/30 06:32:24;;;;;;;14.00;13.50;;;10.20;99.90;;;;;;5110798;28;20213;-61
2023/12/30 06:34:51;;;;;;;14.90;14.40;;;10.20;99.90;;;;;;5114743;27;20720;-62
2023/12/30 06:37:18;;;;;;;13.93;13.43;;;10.40;99.90;;;;;;5116410;27;20202;-62
2023/12/30 06:39:46;;;;;;;14.90;14.40;;;10.30;99.90;;;;;;5115252;28;20210;-62
2023/12/30 06:42:14;;;;;;;15.87;15.37;;;10.30;99.90;;;;;;5114862;27;20233;-61
2023/12/30 06:44:40;;;;;;;15.00;14.50;;;10.30;99.90;;;;;;5109829;28;20198;-61
2023/12/30 06:47:07;;;;;;;14.33;13.83;;;10.30;99.90;;;;;;5104854;28;20288;-62
2023/12/30 06:49:39;;;;;;;13.90;13.40;;;10.30;99.90;;;;;;5114065;27;20218;-64
2023/12/30 06:52:06;;;;;;;14.83;14.33;;;10.30;99.90;;;;;;5105642;28;20600;-63
2023/12/30 06:54:32;;;;;;;14.07;13.57;;;10.30;99.90;;;;;;5116248;27;20221;-63
2023/12/30 06:56:59;;;;;;;13.03;12.53;;;10.40;99.90;;;;;;5128060;27;20205;-63
2023/12/30 06:59:27;;;;;;;13.53;13.03;;;10.30;99.90;;;;;;5118725;27;20205;-63
2023/12/30 07:01:54;;;;;;;14.10;13.60;;;10.40;99.90;;;;;;5119653;27;20226;-63
2023/12/30 07:04:21;;;;;;;14.37;13.87;;;10.40;99.90;;;;;;5129993;27;20419;-62
2023/12/30 07:06:48;;;;;;;14.90;14.40;;;10.30;99.90;;;;;;5125308;27;20205;-63
2023/12/30 07:09:14;;;;;;;15.63;15.13;;;10.30;99.90;;;;;;5127029;27;20209;-63
2023/12/30 07:11:41;;;;;;;14.83;14.33;;;10.30;99.90;;;;;;5128166;27;20630;-63
2023/12/30 07:14:08;;;;;;;14.60;14.10;;;10.30;99.90;;;;;;5129355;27;20253;-63
2023/12/30 07:16:36;;;;;;;14.40;13.90;;;10.30;99.90;;;;;;5131247;27;20213;-63
2023/12/30 07:19:03;;;;;;;14.97;14.47;;;10.20;99.90;;;;;;5123562;27;20205;-62
2023/12/30 07:21:29;;;;;;;14.00;13.50;;;10.10;99.90;;;;;;5123203;27;20229;-64
2023/12/30 07:23:56;;;;;;;14.50;14.00;;;10.10;99.90;;;;;;5116926;27;20198;-64
2023/12/30 07:26:23;;;;;;;14.13;13.63;;;10.10;99.90;;;;;;5119520;27;20565;-63
2023/12/30 07:28:49;;;;;;;13.90;13.40;;;10.20;99.90;;;;;;5123449;27;20197;-62
2023/12/30 07:31:16;;;;;;;15.00;14.50;;;10.20;99.90;;;;;;5128877;27;20221;-63
2023/12/30 07:33:44;;;;;;;12.77;12.37;;;10.20;99.90;;;;;;5117077;27;20209;-64
2023/12/30 07:36:11;;;;;;;13.93;13.43;;;10.30;99.90;;;;;;5118465;27;20201;-63
2023/12/30 07:38:38;;;;;;;13.70;13.20;;;10.30;99.90;;;;;;5120851;27;20205;-63
2023/12/30 07:41:05;;;;;;;13.40;12.93;;;10.40;99.90;;;;;;5120161;27;20649;-62
2023/12/30 07:43:31;;;;;;;13.23;12.73;;;10.40;99.90;;;;;;5122338;27;20198;-63
2023/12/30 07:45:58;;;;;;;13.13;12.67;;;10.50;99.90;;;;;;5119880;27;20205;-64
2023/12/30 07:48:25;;;;;;;12.70;12.30;;;10.50;99.90;;;;;;5117416;27;20205;-62
2023/12/30 07:50:53;;;;;;;13.33;12.83;;;10.50;99.90;;;;;;5119210;27;20230;-63
2023/12/30 07:53:19;;;;;;;13.60;13.10;;;10.50;99.90;;;;;;5121606;27;20424;-63
2023/12/30 07:55:46;;;;;;;12.67;12.27;;;10.50;99.90;;;;;;5119489;27;20233;-62
2023/12/30 07:58:13;;;;;;;13.57;13.07;;;10.50;99.90;;;;;;5120227;27;20200;-62
2023/12/30 08:00:40;;;;;;;12.53;12.13;;;10.50;99.90;;;;;;5117702;27;20322;-64
2023/12/30 08:03:07;;;;;;;12.50;12.10;;;10.50;99.90;;;;;;5119383;27;20202;-64
2023/12/30 08:05:33;;;;;;;11.93;11.52;;;10.50;99.90;;;;;;5114138;27;20634;-63
2023/12/30 08:08:02;;;;;;;10.83;10.47;;;10.50;99.90;;;;;;5121144;27;20202;-63
2023/12/30 08:10:29;;;;;;;11.03;10.63;;;10.50;99.90;;;;;;5135179;27;20257;-63
2023/12/30 08:12:56;;;;;;;11.80;11.40;;;10.60;99.90;;;;;;5131221;27;20198;-63
2023/12/30 08:15:23;;;;;;;11.83;11.43;;;10.60;99.90;;;;;;5131064;27;20243;-63
2023/12/30 08:17:50;;;;;;;11.50;11.10;;;10.70;99.90;;;;;;5123009;27;20214;-63
2023/12/30 08:20:17;;;;;;;11.73;11.33;;;10.70;99.90;;;;;;5121040;27;20217;-62
2023/12/30 08:22:43;;;;;;;11.87;11.47;;;10.60;99.90;;;;;;5122076;27;20216;-62
2023/12/30 08:25:13;;;;;;;11.97;11.57;;;10.60;99.90;;;;;;5120177;27;20300;-64
2023/12/30 08:27:40;;;;;;;12.17;11.77;;;10.70;99.90;;;;;;5122172;27;20206;-62
2023/12/30 08:30:08;;;;;;;12.07;11.67;;;10.80;99.90;;;;;;5126577;27;20197;-64
2023/12/30 08:32:34;;;;;;;12.00;11.60;;;10.80;99.90;;;;;;5116207;27;20198;-63
2023/12/30 08:35:02;;;;;;;12.83;12.43;;;10.90;99.90;;;;;;5120009;27;20229;-63
2023/12/30 08:37:29;;;;;;;12.00;11.60;;;10.90;99.90;;;;;;5120540;27;20221;-63
2023/12/30 08:39:56;;;;;;;13.67;13.20;;;11.00;99.90;;;;;;5119890;27;20205;-63
2023/12/30 08:42:24;;;;;;;14.00;13.50;;;11.00;99.90;;;;;;5120216;27;20671;-61
2023/12/30 08:44:51;;;;;;;14.43;13.93;;;11.00;99.90;;;;;;5119461;27;20202;-59
2023/12/30 08:47:17;;;;;;;13.63;13.13;;;11.10;99.90;;;;;;5121019;27;20194;-61
2023/12/30 08:49:44;;;;;;;14.80;14.30;;;11.10;99.90;;;;;;5120929;27;20577;-62
2023/12/30 08:52:11;;;;;;;14.30;13.80;;;11.10;99.90;;;;;;5117507;27;20226;-62
2023/12/30 08:54:40;;;;;;;13.70;13.20;;;11.20;99.90;;;;;;5117834;27;20622;-63
2023/12/30 08:57:07;;;;;;;13.47;12.97;;;11.20;99.90;;;;;;5122131;27;20208;-63
2023/12/30 08:59:35;;;;;;;14.40;13.90;;;11.30;99.90;;;;;;5120133;27;20223;-63
2023/12/30 09:02:02;;;;;;;14.40;13.90;;;11.20;99.90;;;;;;5118364;27;20232;-63
2023/12/30 09:04:30;;;;;;;13.60;13.10;;;11.20;99.90;;;;;;5123284;27;20244;-61
2023/12/30 09:06:57;;;;;;;13.67;13.17;;;11.30;99.90;;;;;;5119843;27;20809;-63
2023/12/30 09:09:24;;;;;;;13.80;13.30;;;11.30;99.90;;;;;;5121670;27;20587;-62
2023/12/30 09:11:51;;;;;;;13.30;12.80;;;11.40;99.90;;;;;;5124348;27;20240;-62
2023/12/30 09:14:18;;;;;;;14.70;14.20;;;11.50;99.90;;;;;;5129436;27;20212;-63
2023/12/30 09:16:47;;;;;;;13.30;12.90;;;11.40;99.90;;;;;;5114723;27;20561;-63
2023/12/30 09:19:13;;;;;;;13.27;12.80;;;11.60;99.90;;;;;;5129631;27;20197;-63
2023/12/30 09:21:40;;;;;;;13.93;13.43;;;11.40;99.90;;;;;;5120367;27;20240;-63
2023/12/30 09:24:07;;;;;;;14.50;14.00;;;11.40;99.90;;;;;;5121373;27;20743;-63
2023/12/30 09:26:34;;;;;;;14.57;14.07;;;11.50;99.90;;;;;;5117266;27;20210;-63
2023/12/30 09:29:01;;;;;;;13.73;13.27;;;11.50;99.90;;;;;;5121514;27;20660;-65
2023/12/30 09:31:27;;;;;;;14.52;14.02;;;11.60;99.90;;;;;;5118440;27;20221;-64
2023/12/30 09:33:55;;;;;;;12.85;12.45;;;11.60;99.90;;;;;;5121981;27;20206;-64
2023/12/30 09:36:22;;;;;;;13.30;12.83;;;11.60;99.90;;;;;;5123094;27;20217;-63
2023/12/30 09:38:49;;;;;;;13.00;12.60;;;11.70;99.90;;;;;;5120659;28;20202;-63
2023/12/30 09:41:18;;;;;;;13.53;13.03;;;11.70;99.90;;;;;;5124544;27;20681;-64
2023/12/30 09:43:46;;;;;;;13.57;13.07;;;11.70;99.90;;;;;;5120399;28;20213;-62
2023/12/30 09:46:14;;;;;;;12.77;12.37;;;11.80;99.90;;;;;;5123972;28;20725;-63
2023/12/30 09:48:43;;;;;;;12.83;12.43;;;11.80;99.90;;;;;;5123609;28;20664;-64
2023/12/30 09:51:12;;;;;;;12.43;12.03;;;11.90;99.90;;;;;;5119900;28;20786;-63
2023/12/30 09:53:38;;;;;;;12.67;12.20;;;11.80;99.90;;;;;;5125288;27;20194;-64
2023/12/30 09:56:05;;;;;;;12.77;12.30;;;11.80;99.90;;;;;;5122462;27;20225;-64
2023/12/30 09:58:34;;;;;;;12.90;12.50;;;11.80;99.90;;;;;;5121364;27;20193;-65
2023/12/30 10:01:00;;;;;;;12.80;12.40;;;11.80;99.90;;;;;;5118165;28;20228;-63
2023/12/30 10:03:28;;;;;;;12.80;12.40;;;11.70;99.90;;;;;;5119421;27;20205;-64
2023/12/30 10:05:58;;;;;;;12.73;12.23;;;11.80;99.90;;;;;;5118803;28;20677;-63
2023/12/30 10:08:28;;;;;;;12.97;12.47;;;11.80;99.90;;;;;;5121034;28;20198;-64
2023/12/30 10:10:54;;;;;;;12.67;12.27;;;11.70;99.90;;;;;;5120084;28;20864;-63
2023/12/30 10:13:25;;;;;;;12.70;12.30;;;11.80;99.90;;;;;;5121266;28;20197;-65
2023/12/30 10:15:53;;;;;;;12.53;12.13;;;11.80;99.90;;;;;;5116472;28;20260;-64
2023/12/30 10:18:20;;;;;;;12.37;11.97;;;11.80;99.90;;;;;;5120447;27;20217;-65
2023/12/30 10:20:47;;;;;;;12.30;11.80;;;11.90;99.90;;;;;;5122285;28;20228;-62
2023/12/30 10:23:15;;;;;;;11.90;11.50;;;11.90;99.90;;;;;;5120748;28;20206;-61
2023/12/30 10:25:43;;;;;;;12.03;11.63;;;12.00;99.90;;;;;;5121198;28;20198;-64
2023/12/30 10:28:10;;;;;;;12.13;11.73;;;12.00;99.90;;;;;;5116841;28;20206;-65
2023/12/30 10:30:36;;;;;;;12.13;11.73;;;12.00;99.90;;;;;;5119926;27;20222;-63
2023/12/30 10:33:08;;;;;;;12.00;11.60;;;12.10;99.90;;;;;;5120065;28;20209;-64
2023/12/30 10:35:35;;;;;;;11.70;11.30;;;12.10;99.90;;;;;;5120775;27;20349;-64
2023/12/30 10:38:03;;;;;;;12.33;11.93;;;12.10;99.90;;;;;;5121683;28;20194;-64
2023/12/30 10:40:30;;;;;;;11.80;11.40;;;12.10;99.90;;;;;;5121170;27;20779;-64
2023/12/30 10:42:58;;;;;;;12.23;11.83;;;12.20;99.90;;;;;;5125911;27;20213;-63
2023/12/30 10:45:25;;;;;;;11.67;11.27;;;12.20;99.90;;;;;;5129284;27;20198;-64
2023/12/30 10:47:55;;;;;;;12.03;11.63;;;12.40;99.90;;;;;;5124161;27;20313;-63
2023/12/30 10:50:23;;;;;;;12.43;12.02;;;12.60;99.90;;;;;;5124416;27;20252;-63
2023/12/30 10:52:56;;;;;;;12.30;11.90;;;12.70;99.90;;;;;;5124141;27;20626;-65
2023/12/30 10:55:28;;;;;;;14.13;13.53;;;12.70;99.90;;;;;;5127178;27;20218;-64
2023/12/30 10:58:04;;;;;;;13.45;12.98;;;12.80;99.90;;;;;;5132071;27;20949;-64
2023/12/30 11:00:35;;;;;;;13.83;13.33;;;12.90;99.90;;;;;;5122577;27;20221;-65
2023/12/30 11:03:03;;;;;;;13.10;12.60;;;13.00;99.90;;;;;;5124370;27;20228;-64
2023/12/30 11:05:34;;;;;;;12.30;11.90;;;13.10;99.90;;;;;;5129801;27;20280;-62
2023/12/30 11:08:03;;;;;;;12.27;11.83;;;13.20;99.90;;;;;;5118896;27;20194;-62
2023/12/30 11:10:30;;;;;;;12.17;11.77;;;13.50;99.90;;;;;;5115572;27;20225;-63
2023/12/30 11:12:57;;;;;;;12.43;12.03;;;13.50;99.90;;;;;;5119823;27;20217;-64
2023/12/30 11:15:28;;;;;;;12.23;11.83;;;13.50;99.90;;;;;;5120602;27;20210;-64
2023/12/30 11:17:56;;;;;;;11.60;11.20;;;13.60;99.90;;;;;;5124879;27;20213;-63
2023/12/30 11:20:27;;;;;;;12.00;11.60;;;13.60;99.90;;;;;;5123681;27;20217;-63
2023/12/30 11:22:55;;;;;;;12.20;11.80;;;13.60;99.90;;;;;;5124335;27;20205;-64
2023/12/30 11:25:22;;;;;;;11.87;11.47;;;13.70;99.90;;;;;;5123698;27;20288;-64
2023/12/30 11:27:52;;;;;;;11.53;11.13;;;13.70;99.90;;;;;;5129438;27;20203;-66
2023/12/30 11:30:26;;;;;;;11.80;11.40;;;13.80;99.90;;;;;;5130465;27;20324;-65
2023/12/30 11:32:54;;;;;;;11.03;10.63;;;13.70;99.90;;;;;;5115268;27;20191;-65
2023/12/30 11:35:22;;;;;;;11.87;11.47;;;13.80;99.90;;;;;;5123903;27;20243;-65
2023/12/30 11:37:52;;;;;;;11.80;11.40;;;13.80;99.90;;;;;;5122081;27;20210;-62
2023/12/30 11:40:21;;;;;;;11.70;11.30;;;13.80;99.90;;;;;;5126449;27;20680;-63
2023/12/30 11:42:47;;;;;;;11.70;11.30;;;13.80;99.90;;;;;;5124675;27;20217;-64
2023/12/30 11:45:14;;;;;;;11.43;11.03;;;13.80;99.90;;;;;;5114976;27;20202;-65
2023/12/30 11:47:45;;;;;;;11.60;11.20;;;13.80;99.90;;;;;;5118420;27;20209;-64
2023/12/30 11:50:13;;;;;;;11.40;11.00;;;13.90;99.90;;;;;;5118357;27;20309;-64
2023/12/30 11:52:45;;;;;;;11.60;11.20;;;13.90;99.90;;;;;;5120683;27;20202;-63
2023/12/30 11:55:12;;;;;;;11.60;11.20;;;13.90;99.90;;;;;;5113630;27;20245;-64
2023/12/30 11:57:38;;;;;;;11.20;10.80;;;13.80;99.90;;;;;;5118166;27;20197;-64
2023/12/30 12:00:08;;;;;;;11.80;11.40;;;13.70;99.90;;;;;;5116121;27;20210;-63
2023/12/30 12:02:35;;;;;;;12.03;11.63;;;13.60;99.90;;;;;;5120624;27;20215;-64
2023/12/30 12:05:05;;;;;;;12.70;12.20;;;13.50;99.90;;;;;;5126737;27;20569;-64
2023/12/30 12:07:31;;;;;;;12.33;11.93;;;13.40;99.90;;;;;;5121179;27;20202;-68
2023/12/30 12:09:58;;;;;;;12.23;11.83;;;13.50;99.90;;;;;;5140241;27;20214;-65
2023/12/30 12:12:25;;;;;;;12.00;11.60;;;13.40;99.90;;;;;;5134209;27;20201;-65
2023/12/30 12:14:52;;;;;;;11.90;11.50;;;13.30;99.90;;;;;;5136687;27;20205;-64
2023/12/30 12:17:20;;;;;;;12.18;11.77;;;13.20;99.90;;;;;;5132641;27;20213;-65
2023/12/30 12:19:47;;;;;;;12.33;11.93;;;13.30;99.90;;;;;;5130739;27;20198;-65
2023/12/30 12:22:15;;;;;;;12.20;11.80;;;13.30;99.90;;;;;;5136135;27;20221;-63
2023/12/30 12:24:43;;;;;;;12.40;12.00;;;13.30;99.90;;;;;;5129711;27;20194;-64
2023/12/30 12:27:10;;;;;;;12.27;11.87;;;13.20;99.90;;;;;;5126074;27;20194;-65
2023/12/30 12:29:45;;;;;;;12.03;11.63;;;13.30;99.90;;;;;;5126217;27;20579;-64